sensor_id;sensor_type;location;lat;lon;timestamp;P1;durP1;ratioP1;P2;durP2;ratioP2
83398;SDS011;73326;43.228;0.106;2024-01-27T00:02:00;102.22;;;43.03;;
83398;SDS011;73326;43.228;0.106;2024-01-27T00:04:26;80.20;;;39.05;;
83398;SDS011;73326;43.228;0.106;2024-01-27T00:06:52;71.50;;;38.95;;
83398;SDS011;73326;43.228;0.106;2024-01-27T00:09:18;69.15;;;36.22;;
83398;SDS011;73326;43.228;0.106;2024-01-27T00:11:44;68.95;;;37.83;;
83398;SDS011;73326;43.228;0.106;2024-01-27T00:14:10;64.90;;;37.38;;
83398;SDS011;73326;43.228;0.106;2024-01-27T00:16:36;63.65;;;37.17;;
83398;SDS011;73326;43.228;0.106;2024-01-27T00:19:02;65.72;;;38.38;;
83398;SDS011;73326;43.228;0.106;2024-01-27T00:21:28;67.30;;;39.85;;
83398;SDS011;73326;43.228;0.106;2024-01-27T00:23:54;66.28;;;37.38;;
83398;SDS011;73326;43.228;0.106;2024-01-27T00:26:25;66.82;;;38.65;;
83398;SDS011;73326;43.228;0.106;2024-01-27T00:28:51;64.53;;;37.55;;
83398;SDS011;73326;43.228;0.106;2024-01-27T00:31:17;64.50;;;36.70;;
83398;SDS011;73326;43.228;0.106;2024-01-27T00:33:43;63.40;;;36.72;;
83398;SDS011;73326;43.228;0.106;2024-01-27T00:36:10;65.53;;;37.78;;
83398;SDS011;73326;43.228;0.106;2024-01-27T00:38:36;60.92;;;34.90;;
83398;SDS011;73326;43.228;0.106;2024-01-27T00:41:03;53.20;;;32.65;;
83398;SDS011;73326;43.228;0.106;2024-01-27T00:43:30;56.08;;;32.80;;
83398;SDS011;73326;43.228;0.106;2024-01-27T00:45:56;54.10;;;32.20;;
83398;SDS011;73326;43.228;0.106;2024-01-27T00:48:22;53.25;;;32.03;;
83398;SDS011;73326;43.228;0.106;2024-01-27T00:50:48;55.75;;;33.33;;
83398;SDS011;73326;43.228;0.106;2024-01-27T00:53:14;56.55;;;32.72;;
83398;SDS011;73326;43.228;0.106;2024-01-27T00:55:40;53.80;;;32.40;;
83398;SDS011;73326;43.228;0.106;2024-01-27T00:58:07;53.53;;;31.30;;
83398;SDS011;73326;43.228;0.106;2024-01-27T01:00:33;51.70;;;31.17;;
83398;SDS011;73326;43.228;0.106;2024-01-27T01:02:59;78.47;;;34.53;;
83398;SDS011;73326;43.228;0.106;2024-01-27T01:05:25;145.23;;;35.65;;
83398;SDS011;73326;43.228;0.106;2024-01-27T01:07:51;100.57;;;34.97;;
83398;SDS011;73326;43.228;0.106;2024-01-27T01:10:17;87.45;;;30.27;;
83398;SDS011;73326;43.228;0.106;2024-01-27T01:12:43;87.95;;;29.30;;
83398;SDS011;73326;43.228;0.106;2024-01-27T01:15:09;121.35;;;31.33;;
83398;SDS011;73326;43.228;0.106;2024-01-27T01:17:35;88.05;;;28.20;;
83398;SDS011;73326;43.228;0.106;2024-01-27T01:20:01;94.35;;;31.23;;
83398;SDS011;73326;43.228;0.106;2024-01-27T01:22:27;90.13;;;30.17;;
83398;SDS011;73326;43.228;0.106;2024-01-27T01:24:53;107.28;;;32.42;;
83398;SDS011;73326;43.228;0.106;2024-01-27T01:27:19;138.77;;;33.75;;
83398;SDS011;73326;43.228;0.106;2024-01-27T01:29:46;111.57;;;33.80;;
83398;SDS011;73326;43.228;0.106;2024-01-27T01:32:12;109.82;;;33.90;;
83398;SDS011;73326;43.228;0.106;2024-01-27T01:34:38;170.95;;;36.47;;
83398;SDS011;73326;43.228;0.106;2024-01-27T01:37:04;195.73;;;36.65;;
83398;SDS011;73326;43.228;0.106;2024-01-27T01:39:30;121.78;;;31.45;;
83398;SDS011;73326;43.228;0.106;2024-01-27T01:41:57;84.65;;;32.65;;
83398;SDS011;73326;43.228;0.106;2024-01-27T01:44:24;61.70;;;25.98;;
83398;SDS011;73326;43.228;0.106;2024-01-27T01:46:55;50.60;;;26.17;;
83398;SDS011;73326;43.228;0.106;2024-01-27T01:49:21;82.88;;;35.33;;
83398;SDS011;73326;43.228;0.106;2024-01-27T01:51:47;63.05;;;30.40;;
83398;SDS011;73326;43.228;0.106;2024-01-27T01:54:13;54.88;;;25.58;;
83398;SDS011;73326;43.228;0.106;2024-01-27T01:56:39;110.72;;;31.90;;
83398;SDS011;73326;43.228;0.106;2024-01-27T01:59:05;88.18;;;26.83;;
83398;SDS011;73326;43.228;0.106;2024-01-27T02:01:31;86.97;;;24.15;;
83398;SDS011;73326;43.228;0.106;2024-01-27T02:03:57;94.38;;;26.95;;
83398;SDS011;73326;43.228;0.106;2024-01-27T02:06:23;70.65;;;22.77;;
83398;SDS011;73326;43.228;0.106;2024-01-27T02:08:50;67.43;;;21.30;;
83398;SDS011;73326;43.228;0.106;2024-01-27T02:11:16;129.38;;;26.33;;
83398;SDS011;73326;43.228;0.106;2024-01-27T02:13:43;172.85;;;27.42;;
83398;SDS011;73326;43.228;0.106;2024-01-27T02:16:09;111.65;;;25.75;;
83398;SDS011;73326;43.228;0.106;2024-01-27T02:18:35;218.00;;;30.58;;
83398;SDS011;73326;43.228;0.106;2024-01-27T02:21:01;85.65;;;21.17;;
83398;SDS011;73326;43.228;0.106;2024-01-27T02:23:27;100.68;;;21.13;;
83398;SDS011;73326;43.228;0.106;2024-01-27T02:25:53;57.00;;;19.40;;
83398;SDS011;73326;43.228;0.106;2024-01-27T02:28:19;87.38;;;22.35;;
83398;SDS011;73326;43.228;0.106;2024-01-27T02:30:45;118.80;;;23.50;;
83398;SDS011;73326;43.228;0.106;2024-01-27T02:33:11;96.25;;;20.50;;
83398;SDS011;73326;43.228;0.106;2024-01-27T02:35:37;142.40;;;22.10;;
83398;SDS011;73326;43.228;0.106;2024-01-27T02:38:04;211.40;;;23.67;;
83398;SDS011;73326;43.228;0.106;2024-01-27T02:40:30;165.38;;;24.63;;
83398;SDS011;73326;43.228;0.106;2024-01-27T02:42:56;174.38;;;24.15;;
83398;SDS011;73326;43.228;0.106;2024-01-27T02:45:22;119.13;;;24.27;;
83398;SDS011;73326;43.228;0.106;2024-01-27T02:47:48;147.55;;;28.10;;
83398;SDS011;73326;43.228;0.106;2024-01-27T02:50:14;151.75;;;30.40;;
83398;SDS011;73326;43.228;0.106;2024-01-27T02:52:40;102.05;;;25.58;;
83398;SDS011;73326;43.228;0.106;2024-01-27T02:55:06;136.50;;;25.75;;
83398;SDS011;73326;43.228;0.106;2024-01-27T02:57:32;178.48;;;28.90;;
83398;SDS011;73326;43.228;0.106;2024-01-27T02:59:58;112.78;;;28.35;;
83398;SDS011;73326;43.228;0.106;2024-01-27T03:02:24;106.25;;;27.23;;
83398;SDS011;73326;43.228;0.106;2024-01-27T03:04:50;167.38;;;30.02;;
83398;SDS011;73326;43.228;0.106;2024-01-27T03:07:16;115.43;;;28.70;;
83398;SDS011;73326;43.228;0.106;2024-01-27T03:09:42;133.48;;;28.65;;
83398;SDS011;73326;43.228;0.106;2024-01-27T03:12:08;95.68;;;25.38;;
83398;SDS011;73326;43.228;0.106;2024-01-27T03:14:34;95.38;;;26.92;;
83398;SDS011;73326;43.228;0.106;2024-01-27T03:17:01;92.90;;;26.13;;
83398;SDS011;73326;43.228;0.106;2024-01-27T03:19:27;94.80;;;26.25;;
83398;SDS011;73326;43.228;0.106;2024-01-27T03:21:53;96.93;;;26.73;;
83398;SDS011;73326;43.228;0.106;2024-01-27T03:24:19;79.35;;;26.30;;
83398;SDS011;73326;43.228;0.106;2024-01-27T03:26:45;117.65;;;28.48;;
83398;SDS011;73326;43.228;0.106;2024-01-27T03:29:11;66.03;;;26.95;;
83398;SDS011;73326;43.228;0.106;2024-01-27T03:31:37;66.28;;;27.23;;
83398;SDS011;73326;43.228;0.106;2024-01-27T03:34:03;75.70;;;27.92;;
83398;SDS011;73326;43.228;0.106;2024-01-27T03:36:29;84.15;;;27.17;;
83398;SDS011;73326;43.228;0.106;2024-01-27T03:38:56;49.70;;;22.20;;
83398;SDS011;73326;43.228;0.106;2024-01-27T03:41:22;79.40;;;24.63;;
83398;SDS011;73326;43.228;0.106;2024-01-27T03:43:48;74.60;;;25.73;;
83398;SDS011;73326;43.228;0.106;2024-01-27T03:46:14;137.93;;;27.30;;
83398;SDS011;73326;43.228;0.106;2024-01-27T03:48:40;78.30;;;23.85;;
83398;SDS011;73326;43.228;0.106;2024-01-27T03:51:06;70.78;;;23.70;;
83398;SDS011;73326;43.228;0.106;2024-01-27T03:53:32;86.18;;;25.35;;
83398;SDS011;73326;43.228;0.106;2024-01-27T03:55:58;105.65;;;24.50;;
83398;SDS011;73326;43.228;0.106;2024-01-27T03:58:27;86.82;;;24.38;;
83398;SDS011;73326;43.228;0.106;2024-01-27T04:00:53;61.53;;;21.73;;
83398;SDS011;73326;43.228;0.106;2024-01-27T04:03:19;81.15;;;22.33;;
83398;SDS011;73326;43.228;0.106;2024-01-27T04:05:45;80.10;;;23.95;;
83398;SDS011;73326;43.228;0.106;2024-01-27T04:08:11;94.20;;;24.88;;
83398;SDS011;73326;43.228;0.106;2024-01-27T04:10:37;76.97;;;21.92;;
83398;SDS011;73326;43.228;0.106;2024-01-27T04:13:03;88.45;;;23.35;;
83398;SDS011;73326;43.228;0.106;2024-01-27T04:15:30;54.53;;;21.58;;
83398;SDS011;73326;43.228;0.106;2024-01-27T04:18:03;58.47;;;22.67;;
83398;SDS011;73326;43.228;0.106;2024-01-27T04:20:29;55.20;;;21.98;;
83398;SDS011;73326;43.228;0.106;2024-01-27T04:22:55;42.80;;;20.67;;
83398;SDS011;73326;43.228;0.106;2024-01-27T04:25:21;38.40;;;20.83;;
83398;SDS011;73326;43.228;0.106;2024-01-27T04:27:47;44.15;;;19.95;;
83398;SDS011;73326;43.228;0.106;2024-01-27T04:30:13;41.00;;;19.08;;
83398;SDS011;73326;43.228;0.106;2024-01-27T04:32:39;62.83;;;18.90;;
83398;SDS011;73326;43.228;0.106;2024-01-27T04:35:08;131.35;;;21.05;;
83398;SDS011;73326;43.228;0.106;2024-01-27T04:37:35;112.93;;;20.00;;
83398;SDS011;73326;43.228;0.106;2024-01-27T04:40:01;110.18;;;22.00;;
83398;SDS011;73326;43.228;0.106;2024-01-27T04:42:27;143.63;;;23.77;;
83398;SDS011;73326;43.228;0.106;2024-01-27T04:44:53;115.80;;;24.00;;
83398;SDS011;73326;43.228;0.106;2024-01-27T04:47:19;109.03;;;22.80;;
83398;SDS011;73326;43.228;0.106;2024-01-27T04:49:45;70.50;;;19.65;;
83398;SDS011;73326;43.228;0.106;2024-01-27T04:52:11;123.03;;;23.05;;
83398;SDS011;73326;43.228;0.106;2024-01-27T04:54:37;53.95;;;19.75;;
83398;SDS011;73326;43.228;0.106;2024-01-27T04:57:03;73.63;;;20.95;;
83398;SDS011;73326;43.228;0.106;2024-01-27T04:59:30;73.88;;;21.35;;
83398;SDS011;73326;43.228;0.106;2024-01-27T05:01:56;94.95;;;22.48;;
83398;SDS011;73326;43.228;0.106;2024-01-27T05:04:22;86.57;;;21.00;;
83398;SDS011;73326;43.228;0.106;2024-01-27T05:06:51;75.32;;;21.60;;
83398;SDS011;73326;43.228;0.106;2024-01-27T05:09:17;154.10;;;25.15;;
83398;SDS011;73326;43.228;0.106;2024-01-27T05:11:43;81.82;;;19.33;;
83398;SDS011;73326;43.228;0.106;2024-01-27T05:14:10;69.63;;;19.80;;
83398;SDS011;73326;43.228;0.106;2024-01-27T05:16:36;69.30;;;19.83;;
83398;SDS011;73326;43.228;0.106;2024-01-27T05:19:02;80.35;;;20.25;;
83398;SDS011;73326;43.228;0.106;2024-01-27T05:21:28;67.32;;;18.92;;
83398;SDS011;73326;43.228;0.106;2024-01-27T05:23:54;48.85;;;14.82;;
83398;SDS011;73326;43.228;0.106;2024-01-27T05:26:20;83.80;;;19.60;;
83398;SDS011;73326;43.228;0.106;2024-01-27T05:28:47;112.97;;;20.10;;
83398;SDS011;73326;43.228;0.106;2024-01-27T05:31:13;83.78;;;18.42;;
83398;SDS011;73326;43.228;0.106;2024-01-27T05:33:40;105.47;;;20.00;;
83398;SDS011;73326;43.228;0.106;2024-01-27T05:36:06;99.20;;;21.15;;
83398;SDS011;73326;43.228;0.106;2024-01-27T05:38:32;84.32;;;25.52;;
83398;SDS011;73326;43.228;0.106;2024-01-27T05:41:01;90.18;;;24.50;;
83398;SDS011;73326;43.228;0.106;2024-01-27T05:43:27;76.95;;;25.38;;
83398;SDS011;73326;43.228;0.106;2024-01-27T05:45:53;73.07;;;21.63;;
83398;SDS011;73326;43.228;0.106;2024-01-27T05:48:19;64.57;;;20.45;;
83398;SDS011;73326;43.228;0.106;2024-01-27T05:50:54;72.63;;;23.80;;
83398;SDS011;73326;43.228;0.106;2024-01-27T05:53:21;99.20;;;23.65;;
83398;SDS011;73326;43.228;0.106;2024-01-27T05:55:47;95.25;;;22.88;;
83398;SDS011;73326;43.228;0.106;2024-01-27T05:58:13;86.38;;;22.90;;
83398;SDS011;73326;43.228;0.106;2024-01-27T06:00:39;51.47;;;18.08;;
83398;SDS011;73326;43.228;0.106;2024-01-27T06:03:05;90.03;;;19.58;;
83398;SDS011;73326;43.228;0.106;2024-01-27T06:05:31;51.15;;;19.58;;
83398;SDS011;73326;43.228;0.106;2024-01-27T06:07:57;61.25;;;21.73;;
83398;SDS011;73326;43.228;0.106;2024-01-27T06:10:23;89.07;;;18.20;;
83398;SDS011;73326;43.228;0.106;2024-01-27T06:12:49;79.78;;;18.45;;
83398;SDS011;73326;43.228;0.106;2024-01-27T06:15:15;67.68;;;17.38;;
83398;SDS011;73326;43.228;0.106;2024-01-27T06:17:41;59.75;;;17.48;;
83398;SDS011;73326;43.228;0.106;2024-01-27T06:20:08;62.08;;;17.15;;
83398;SDS011;73326;43.228;0.106;2024-01-27T06:22:34;91.13;;;17.77;;
83398;SDS011;73326;43.228;0.106;2024-01-27T06:25:00;122.40;;;19.58;;
83398;SDS011;73326;43.228;0.106;2024-01-27T06:27:26;60.55;;;18.23;;
83398;SDS011;73326;43.228;0.106;2024-01-27T06:29:52;68.70;;;18.02;;
83398;SDS011;73326;43.228;0.106;2024-01-27T06:32:18;110.75;;;21.27;;
83398;SDS011;73326;43.228;0.106;2024-01-27T06:34:44;70.68;;;18.70;;
83398;SDS011;73326;43.228;0.106;2024-01-27T06:37:10;70.75;;;18.30;;
83398;SDS011;73326;43.228;0.106;2024-01-27T06:39:36;57.15;;;18.65;;
83398;SDS011;73326;43.228;0.106;2024-01-27T06:42:02;47.17;;;16.70;;
83398;SDS011;73326;43.228;0.106;2024-01-27T06:44:28;71.93;;;18.52;;
83398;SDS011;73326;43.228;0.106;2024-01-27T06:46:54;53.60;;;17.30;;
83398;SDS011;73326;43.228;0.106;2024-01-27T06:49:20;42.42;;;13.52;;
83398;SDS011;73326;43.228;0.106;2024-01-27T06:51:46;49.60;;;15.30;;
83398;SDS011;73326;43.228;0.106;2024-01-27T06:54:12;36.50;;;13.45;;
83398;SDS011;73326;43.228;0.106;2024-01-27T06:56:38;46.80;;;13.57;;
83398;SDS011;73326;43.228;0.106;2024-01-27T06:59:04;52.30;;;17.75;;
83398;SDS011;73326;43.228;0.106;2024-01-27T07:01:30;37.08;;;13.63;;
83398;SDS011;73326;43.228;0.106;2024-01-27T07:03:56;34.35;;;14.07;;
83398;SDS011;73326;43.228;0.106;2024-01-27T07:06:22;29.00;;;14.85;;
83398;SDS011;73326;43.228;0.106;2024-01-27T07:08:48;34.03;;;14.27;;
83398;SDS011;73326;43.228;0.106;2024-01-27T07:11:14;31.65;;;13.43;;
83398;SDS011;73326;43.228;0.106;2024-01-27T07:13:41;36.90;;;14.05;;
83398;SDS011;73326;43.228;0.106;2024-01-27T07:16:07;25.88;;;13.63;;
83398;SDS011;73326;43.228;0.106;2024-01-27T07:18:33;41.92;;;13.10;;
83398;SDS011;73326;43.228;0.106;2024-01-27T07:21:00;24.98;;;12.07;;
83398;SDS011;73326;43.228;0.106;2024-01-27T07:23:27;45.45;;;12.57;;
83398;SDS011;73326;43.228;0.106;2024-01-27T07:25:53;98.82;;;16.05;;
83398;SDS011;73326;43.228;0.106;2024-01-27T07:28:19;93.20;;;15.60;;
83398;SDS011;73326;43.228;0.106;2024-01-27T07:30:46;27.23;;;12.88;;
83398;SDS011;73326;43.228;0.106;2024-01-27T07:33:12;35.80;;;12.90;;
83398;SDS011;73326;43.228;0.106;2024-01-27T07:35:38;36.75;;;12.45;;
83398;SDS011;73326;43.228;0.106;2024-01-27T07:38:04;40.85;;;12.23;;
83398;SDS011;73326;43.228;0.106;2024-01-27T07:40:30;63.38;;;14.02;;
83398;SDS011;73326;43.228;0.106;2024-01-27T07:42:56;44.08;;;13.00;;
83398;SDS011;73326;43.228;0.106;2024-01-27T07:45:22;24.40;;;12.02;;
83398;SDS011;73326;43.228;0.106;2024-01-27T07:47:48;16.25;;;10.95;;
83398;SDS011;73326;43.228;0.106;2024-01-27T07:50:14;16.55;;;11.13;;
83398;SDS011;73326;43.228;0.106;2024-01-27T07:52:40;14.35;;;10.45;;
83398;SDS011;73326;43.228;0.106;2024-01-27T07:55:06;14.32;;;10.20;;
83398;SDS011;73326;43.228;0.106;2024-01-27T07:57:32;14.77;;;10.07;;
83398;SDS011;73326;43.228;0.106;2024-01-27T07:59:58;12.98;;;10.10;;
83398;SDS011;73326;43.228;0.106;2024-01-27T08:02:24;13.98;;;9.65;;
83398;SDS011;73326;43.228;0.106;2024-01-27T08:04:51;14.85;;;9.80;;
83398;SDS011;73326;43.228;0.106;2024-01-27T08:07:17;23.52;;;13.88;;
83398;SDS011;73326;43.228;0.106;2024-01-27T08:09:43;33.40;;;12.10;;
83398;SDS011;73326;43.228;0.106;2024-01-27T08:12:10;16.50;;;10.57;;
83398;SDS011;73326;43.228;0.106;2024-01-27T08:14:36;19.63;;;10.25;;
83398;SDS011;73326;43.228;0.106;2024-01-27T08:17:03;19.60;;;12.70;;
83398;SDS011;73326;43.228;0.106;2024-01-27T08:19:29;16.73;;;11.10;;
83398;SDS011;73326;43.228;0.106;2024-01-27T08:21:55;12.25;;;8.73;;
83398;SDS011;73326;43.228;0.106;2024-01-27T08:24:21;13.05;;;9.35;;
83398;SDS011;73326;43.228;0.106;2024-01-27T08:26:49;11.15;;;8.90;;
83398;SDS011;73326;43.228;0.106;2024-01-27T08:29:15;10.95;;;8.20;;
83398;SDS011;73326;43.228;0.106;2024-01-27T08:31:41;9.82;;;7.40;;
83398;SDS011;73326;43.228;0.106;2024-01-27T08:34:07;9.77;;;8.02;;
83398;SDS011;73326;43.228;0.106;2024-01-27T08:36:34;8.43;;;7.53;;
83398;SDS011;73326;43.228;0.106;2024-01-27T08:39:00;10.25;;;8.63;;
83398;SDS011;73326;43.228;0.106;2024-01-27T08:41:26;10.27;;;8.82;;
83398;SDS011;73326;43.228;0.106;2024-01-27T08:43:52;10.45;;;9.30;;
83398;SDS011;73326;43.228;0.106;2024-01-27T08:46:18;12.82;;;9.88;;
83398;SDS011;73326;43.228;0.106;2024-01-27T08:48:47;11.43;;;9.80;;
83398;SDS011;73326;43.228;0.106;2024-01-27T08:51:13;13.70;;;10.05;;
83398;SDS011;73326;43.228;0.106;2024-01-27T08:53:41;15.23;;;10.35;;
83398;SDS011;73326;43.228;0.106;2024-01-27T08:56:07;12.25;;;9.02;;
83398;SDS011;73326;43.228;0.106;2024-01-27T08:58:33;34.90;;;9.25;;
83398;SDS011;73326;43.228;0.106;2024-01-27T09:00:59;32.28;;;8.90;;
83398;SDS011;73326;43.228;0.106;2024-01-27T09:03:30;19.38;;;8.40;;
83398;SDS011;73326;43.228;0.106;2024-01-27T09:05:56;26.92;;;8.05;;
83398;SDS011;73326;43.228;0.106;2024-01-27T09:08:22;13.88;;;7.97;;
83398;SDS011;73326;43.228;0.106;2024-01-27T09:10:48;12.10;;;8.55;;
83398;SDS011;73326;43.228;0.106;2024-01-27T09:13:14;11.32;;;8.43;;
83398;SDS011;73326;43.228;0.106;2024-01-27T09:15:40;9.00;;;7.65;;
83398;SDS011;73326;43.228;0.106;2024-01-27T09:18:06;8.82;;;7.80;;
83398;SDS011;73326;43.228;0.106;2024-01-27T09:20:32;9.32;;;8.10;;
83398;SDS011;73326;43.228;0.106;2024-01-27T09:22:58;10.48;;;8.20;;
83398;SDS011;73326;43.228;0.106;2024-01-27T09:25:24;9.77;;;8.48;;
83398;SDS011;73326;43.228;0.106;2024-01-27T09:27:52;9.77;;;8.77;;
83398;SDS011;73326;43.228;0.106;2024-01-27T09:30:18;11.68;;;9.15;;
83398;SDS011;73326;43.228;0.106;2024-01-27T09:32:44;10.40;;;8.95;;
83398;SDS011;73326;43.228;0.106;2024-01-27T09:35:10;10.98;;;9.27;;
83398;SDS011;73326;43.228;0.106;2024-01-27T09:37:36;11.43;;;10.35;;
83398;SDS011;73326;43.228;0.106;2024-01-27T09:40:02;12.35;;;11.05;;
83398;SDS011;73326;43.228;0.106;2024-01-27T09:42:29;15.60;;;14.05;;
83398;SDS011;73326;43.228;0.106;2024-01-27T09:44:57;15.25;;;13.65;;
83398;SDS011;73326;43.228;0.106;2024-01-27T09:47:24;11.10;;;10.00;;
83398;SDS011;73326;43.228;0.106;2024-01-27T09:49:50;10.82;;;9.65;;
83398;SDS011;73326;43.228;0.106;2024-01-27T09:52:16;10.55;;;9.40;;
83398;SDS011;73326;43.228;0.106;2024-01-27T09:54:42;11.02;;;8.93;;
83398;SDS011;73326;43.228;0.106;2024-01-27T09:57:08;10.80;;;9.63;;
83398;SDS011;73326;43.228;0.106;2024-01-27T09:59:34;10.73;;;9.48;;
83398;SDS011;73326;43.228;0.106;2024-01-27T10:02:02;12.88;;;10.00;;
83398;SDS011;73326;43.228;0.106;2024-01-27T10:04:29;8.38;;;7.43;;
83398;SDS011;73326;43.228;0.106;2024-01-27T10:06:55;7.88;;;7.07;;
83398;SDS011;73326;43.228;0.106;2024-01-27T10:09:23;7.45;;;6.57;;
83398;SDS011;73326;43.228;0.106;2024-01-27T10:11:49;6.47;;;5.88;;
83398;SDS011;73326;43.228;0.106;2024-01-27T10:14:15;6.30;;;5.70;;
83398;SDS011;73326;43.228;0.106;2024-01-27T10:16:42;5.95;;;5.35;;
83398;SDS011;73326;43.228;0.106;2024-01-27T10:19:11;6.53;;;5.75;;
83398;SDS011;73326;43.228;0.106;2024-01-27T10:21:38;5.85;;;5.22;;
83398;SDS011;73326;43.228;0.106;2024-01-27T10:24:04;6.30;;;5.65;;
83398;SDS011;73326;43.228;0.106;2024-01-27T10:26:31;7.22;;;5.45;;
83398;SDS011;73326;43.228;0.106;2024-01-27T10:28:58;5.22;;;4.82;;
83398;SDS011;73326;43.228;0.106;2024-01-27T10:31:28;8.05;;;6.28;;
83398;SDS011;73326;43.228;0.106;2024-01-27T10:33:55;6.97;;;6.20;;
83398;SDS011;73326;43.228;0.106;2024-01-27T10:36:26;8.65;;;7.22;;
83398;SDS011;73326;43.228;0.106;2024-01-27T10:38:52;9.13;;;8.23;;
83398;SDS011;73326;43.228;0.106;2024-01-27T10:41:22;9.00;;;8.20;;
83398;SDS011;73326;43.228;0.106;2024-01-27T10:43:52;10.13;;;9.23;;
83398;SDS011;73326;43.228;0.106;2024-01-27T10:46:20;10.15;;;9.02;;
83398;SDS011;73326;43.228;0.106;2024-01-27T10:48:50;10.68;;;9.57;;
83398;SDS011;73326;43.228;0.106;2024-01-27T10:51:23;9.32;;;8.43;;
83398;SDS011;73326;43.228;0.106;2024-01-27T10:53:51;9.87;;;8.97;;
83398;SDS011;73326;43.228;0.106;2024-01-27T10:56:19;11.02;;;10.00;;
83398;SDS011;73326;43.228;0.106;2024-01-27T10:58:45;9.07;;;8.27;;
83398;SDS011;73326;43.228;0.106;2024-01-27T11:01:12;9.10;;;8.30;;
83398;SDS011;73326;43.228;0.106;2024-01-27T11:03:39;10.13;;;8.82;;
83398;SDS011;73326;43.228;0.106;2024-01-27T11:06:06;8.90;;;8.10;;
83398;SDS011;73326;43.228;0.106;2024-01-27T11:08:36;9.13;;;8.30;;
83398;SDS011;73326;43.228;0.106;2024-01-27T11:11:03;8.18;;;7.38;;
83398;SDS011;73326;43.228;0.106;2024-01-27T11:13:30;8.10;;;7.30;;
83398;SDS011;73326;43.228;0.106;2024-01-27T11:15:56;7.78;;;7.07;;
83398;SDS011;73326;43.228;0.106;2024-01-27T11:18:24;6.82;;;6.22;;
83398;SDS011;73326;43.228;0.106;2024-01-27T11:20:59;7.32;;;6.63;;
83398;SDS011;73326;43.228;0.106;2024-01-27T11:23:32;6.95;;;6.28;;
83398;SDS011;73326;43.228;0.106;2024-01-27T11:26:05;7.68;;;6.97;;
83398;SDS011;73326;43.228;0.106;2024-01-27T11:28:31;7.13;;;6.43;;
83398;SDS011;73326;43.228;0.106;2024-01-27T11:30:57;7.40;;;6.55;;
83398;SDS011;73326;43.228;0.106;2024-01-27T11:33:26;7.63;;;6.68;;
83398;SDS011;73326;43.228;0.106;2024-01-27T11:38:27;7.78;;;6.63;;
83398;SDS011;73326;43.228;0.106;2024-01-27T11:40:54;10.52;;;8.55;;
83398;SDS011;73326;43.228;0.106;2024-01-27T11:43:20;12.30;;;10.98;;
83398;SDS011;73326;43.228;0.106;2024-01-27T11:46:07;12.70;;;8.80;;
83398;SDS011;73326;43.228;0.106;2024-01-27T11:48:32;7.60;;;6.90;;
83398;SDS011;73326;43.228;0.106;2024-01-27T11:51:05;7.80;;;6.07;;
83398;SDS011;73326;43.228;0.106;2024-01-27T11:53:32;7.15;;;6.50;;
83398;SDS011;73326;43.228;0.106;2024-01-27T11:55:58;7.40;;;6.65;;
83398;SDS011;73326;43.228;0.106;2024-01-27T11:58:26;7.45;;;6.43;;
83398;SDS011;73326;43.228;0.106;2024-01-27T12:00:52;9.57;;;8.18;;
83398;SDS011;73326;43.228;0.106;2024-01-27T12:03:18;7.82;;;6.70;;
83398;SDS011;73326;43.228;0.106;2024-01-27T12:05:45;9.43;;;6.47;;
83398;SDS011;73326;43.228;0.106;2024-01-27T12:08:11;6.93;;;6.20;;
83398;SDS011;73326;43.228;0.106;2024-01-27T12:10:37;6.28;;;5.68;;
83398;SDS011;73326;43.228;0.106;2024-01-27T12:13:03;6.28;;;5.75;;
83398;SDS011;73326;43.228;0.106;2024-01-27T12:15:29;6.82;;;6.13;;
83398;SDS011;73326;43.228;0.106;2024-01-27T12:17:55;8.48;;;5.75;;
83398;SDS011;73326;43.228;0.106;2024-01-27T12:20:24;6.03;;;5.43;;
83398;SDS011;73326;43.228;0.106;2024-01-27T12:23:01;5.95;;;4.93;;
83398;SDS011;73326;43.228;0.106;2024-01-27T12:25:27;6.00;;;5.40;;
83398;SDS011;73326;43.228;0.106;2024-01-27T12:27:53;7.38;;;5.30;;
83398;SDS011;73326;43.228;0.106;2024-01-27T12:30:20;9.52;;;6.13;;
83398;SDS011;73326;43.228;0.106;2024-01-27T12:32:46;6.18;;;5.57;;
83398;SDS011;73326;43.228;0.106;2024-01-27T12:35:13;7.80;;;6.22;;
83398;SDS011;73326;43.228;0.106;2024-01-27T12:37:39;8.15;;;5.88;;
83398;SDS011;73326;43.228;0.106;2024-01-27T12:40:17;7.75;;;6.43;;
83398;SDS011;73326;43.228;0.106;2024-01-27T12:42:43;7.28;;;6.03;;
83398;SDS011;73326;43.228;0.106;2024-01-27T12:45:09;9.52;;;6.03;;
83398;SDS011;73326;43.228;0.106;2024-01-27T12:47:35;6.75;;;5.57;;
83398;SDS011;73326;43.228;0.106;2024-01-27T12:50:01;8.68;;;6.10;;
83398;SDS011;73326;43.228;0.106;2024-01-27T12:52:27;7.80;;;6.45;;
83398;SDS011;73326;43.228;0.106;2024-01-27T12:54:53;8.68;;;7.00;;
83398;SDS011;73326;43.228;0.106;2024-01-27T12:57:19;8.57;;;6.13;;
83398;SDS011;73326;43.228;0.106;2024-01-27T12:59:47;7.30;;;6.05;;
83398;SDS011;73326;43.228;0.106;2024-01-27T13:02:13;9.48;;;6.13;;
83398;SDS011;73326;43.228;0.106;2024-01-27T13:04:40;8.20;;;5.95;;
83398;SDS011;73326;43.228;0.106;2024-01-27T13:07:06;7.32;;;5.82;;
83398;SDS011;73326;43.228;0.106;2024-01-27T13:09:32;11.30;;;7.60;;
83398;SDS011;73326;43.228;0.106;2024-01-27T13:11:58;9.43;;;6.10;;
83398;SDS011;73326;43.228;0.106;2024-01-27T13:14:24;7.15;;;5.55;;
83398;SDS011;73326;43.228;0.106;2024-01-27T13:16:50;8.90;;;6.25;;
83398;SDS011;73326;43.228;0.106;2024-01-27T13:19:19;5.88;;;5.28;;
83398;SDS011;73326;43.228;0.106;2024-01-27T13:21:45;8.55;;;5.47;;
83398;SDS011;73326;43.228;0.106;2024-01-27T13:24:11;8.55;;;5.40;;
83398;SDS011;73326;43.228;0.106;2024-01-27T13:26:37;7.70;;;4.88;;
83398;SDS011;73326;43.228;0.106;2024-01-27T13:29:04;8.32;;;5.55;;
83398;SDS011;73326;43.228;0.106;2024-01-27T13:31:30;5.80;;;4.93;;
83398;SDS011;73326;43.228;0.106;2024-01-27T13:33:56;7.32;;;4.95;;
83398;SDS011;73326;43.228;0.106;2024-01-27T13:36:23;6.03;;;5.00;;
83398;SDS011;73326;43.228;0.106;2024-01-27T13:38:49;8.40;;;4.78;;
83398;SDS011;73326;43.228;0.106;2024-01-27T13:41:15;8.18;;;5.45;;
83398;SDS011;73326;43.228;0.106;2024-01-27T13:43:41;12.32;;;4.82;;
83398;SDS011;73326;43.228;0.106;2024-01-27T13:46:07;7.63;;;4.70;;
83398;SDS011;73326;43.228;0.106;2024-01-27T13:48:33;8.43;;;4.75;;
83398;SDS011;73326;43.228;0.106;2024-01-27T13:50:59;9.38;;;4.78;;
83398;SDS011;73326;43.228;0.106;2024-01-27T13:53:25;8.00;;;4.60;;
83398;SDS011;73326;43.228;0.106;2024-01-27T13:55:51;10.10;;;5.35;;
83398;SDS011;73326;43.228;0.106;2024-01-27T13:58:18;10.95;;;5.20;;
83398;SDS011;73326;43.228;0.106;2024-01-27T14:00:44;9.82;;;4.82;;
83398;SDS011;73326;43.228;0.106;2024-01-27T14:03:10;10.05;;;5.22;;
83398;SDS011;73326;43.228;0.106;2024-01-27T14:05:36;8.20;;;5.03;;
83398;SDS011;73326;43.228;0.106;2024-01-27T14:08:03;12.27;;;4.85;;
83398;SDS011;73326;43.228;0.106;2024-01-27T14:10:31;7.63;;;4.68;;
83398;SDS011;73326;43.228;0.106;2024-01-27T14:12:58;9.55;;;4.75;;
83398;SDS011;73326;43.228;0.106;2024-01-27T14:15:24;8.30;;;4.10;;
83398;SDS011;73326;43.228;0.106;2024-01-27T14:17:50;8.48;;;4.22;;
83398;SDS011;73326;43.228;0.106;2024-01-27T14:20:16;12.73;;;5.93;;
83398;SDS011;73326;43.228;0.106;2024-01-27T14:22:42;10.20;;;5.57;;
83398;SDS011;73326;43.228;0.106;2024-01-27T14:25:08;8.90;;;4.80;;
83398;SDS011;73326;43.228;0.106;2024-01-27T14:27:34;7.13;;;3.90;;